Terminal Aerodrome Forecast
Issued by NWS

Home | Current Version | Previous Version | Text Only | Print | Product List | Glossary On
Versions: 1 2 3 4 5 6 7 8 9 10 11 12 13 14 15 16 17 18 19 20
000
FTUS46 KLOX 252300 RRA
TAFOXR
TAF
KOXR 252340Z 2600/2624 27020G30KT P6SM FEW010 SCT250
     FM260300 27013KT P6SM SKC
     FM260600 30005KT P6SM SKC
     FM261000 32010KT P6SM SKC
     FM261800 27015G20KT P6SM SKC
     FM262100 28017G25KT P6SM SKC=

USA.gov is the U.S. government's official web portal to all federal, state and local government web resources and services.